This is the latest recevied weather packets stored in our database for station/object EA3CTN-13. If no packets are shown the sender has not sent any weather packets the latest 10 day(s).
| Time | Temp. | Humidity | Pressure | Rain* | Wind** | Luminosity | Snow |
|---|---|---|---|---|---|---|---|
| 1787736381 | 28.89° C | 62% | 1012.2 hPa | - | - | - | - |
| 1787735901 | 28.33° C | 62% | 1011.8 hPa | - | - | - | - |
| 1787735421 | 28.33° C | 58% | 1012.4 hPa | - | - | - | - |
| 1787734941 | 28.89° C | 58% | 1013.3 hPa | - | - | - | - |
| 1787734461 | 28.89° C | 54% | 1014 hPa | - | - | - | - |
| 1787733981 | 28.89° C | 53% | 1013.6 hPa | - | - | - | - |
| 1787733501 | 28.89° C | 53% | 1014.1 hPa | - | - | - | - |
| 1787733021 | 28.89° C | 52% | 1015.1 hPa | - | - | - | - |
| 1787732541 | 28.89° C | 51% | 1014.2 hPa | - | - | - | - |
| 1787732061 | 28.33° C | 52% | 1014.1 hPa | - | - | - | - |
| 1787731581 | 28.33° C | 53% | 1012.6 hPa | - | - | - | - |
| 1787731101 | 28.33° C | 52% | 1013.2 hPa | - | - | - | - |
| 1787730621 | 28.33° C | 53% | 1013.7 hPa | - | - | - | - |
| 1787730141 | 28.89° C | 53% | 1013.6 hPa | - | - | - | - |
| 1787729661 | 28.33° C | 53% | 1012.6 hPa | - | - | - | - |
| 1787729181 | 28.33° C | 54% | 1012.7 hPa | - | - | - | - |
| 1787728701 | 28.33° C | 53% | 1012.7 hPa | - | - | - | - |
| 1787728221 | 28.33° C | 54% | 1012.5 hPa | - | - | - | - |
| 1787727741 | 28.33° C | 55% | 1013.9 hPa | - | - | - | - |
| 1787727261 | 28.33° C | 54% | 1013.9 hPa | - | - | - | - |
| 1787726781 | 28.33° C | 55% | 1014.3 hPa | - | - | - | - |
| 1787726301 | 27.78° C | 57% | 1013.9 hPa | - | - | - | - |
| 1787676133 | 36.67° C | 25% | 1010.9 hPa | - | - | - | - |
| 1787675653 | 38.89° C | 22% | 1010.9 hPa | - | - | - | - |
| 1787675173 | 41.67° C | 20% | 1010.7 hPa | - | - | - | - |
* Rain since midnight (hover to see other rain measurements)
** Current wind speed in m/s (hover to see current wind gust speed)